Погода Боболичкина неделю

Западнопоморское воеводство, Польша

19 - 25 июля
  • 19июля
    Сегодня
    +11°
    +24°
    Облачно с прояснениями
    ВремяПогодаТемператураВлажностьДавлениеВетер, м/сВероятность осадков
    02:00Ясно и безоблачно+13°C93 %756 мм1.9 м/с2 %
    05:00Ясно и безоблачно+13°C92 %756 мм2.1 м/с2 %
    08:00Ясно и безоблачно+18°C77 %756 мм2.6 м/с2 %
    11:00Облачно с прояснениями+21°C63 %756 мм3.9 м/с2 %
    14:00Облачно с прояснениями+23°C53 %755 мм2.9 м/с2 %
    17:00Небольшая облачность+23°C57 %754 мм3.3 м/с2 %
    20:00Ясно и безоблачно+21°C74 %754 мм1.8 м/с2 %
    23:00Ясно и безоблачно+14°C91 %753 мм2.2 м/с2 %
  • 20июля
    Суббота
    +14°
    +25°
    Ясно и безоблачно
    ВремяПогодаТемператураВлажностьДавлениеВетер, м/сВероятность осадков
    02:00Практически безоблачно+14°C94 %753 мм0.9 м/с2 %
    05:00Небольшая облачность+13°C97 %752 мм0.5 м/с2 %
    08:00Ясно и безоблачно+18°C82 %751 мм0.6 м/с2 %
    11:00Ясно и безоблачно+23°C50 %751 мм0.8 м/с2 %
    14:00Ясно и безоблачно+25°C49 %750 мм1.2 м/с2 %
    17:00Ясно и безоблачно+24°C52 %749 мм1.4 м/с2 %
    20:00Ясно и безоблачно+22°C73 %749 мм3.3 м/с2 %
    23:00Ясно и безоблачно+17°C87 %748 мм1.9 м/с2 %
  • 21июля
    Воскресенье
    +16°
    +28°
    Небольшая облачность
    ВремяПогодаТемператураВлажностьДавлениеВетер, м/сВероятность осадков
    02:00Небольшая облачность+16°C94 %748 мм2.6 м/с2 %
    05:00Ясно и безоблачно+15°C95 %747 мм2.3 м/с2 %
    08:00Ясно и безоблачно+19°C83 %747 мм2.3 м/с2 %
    11:00Ясно и безоблачно+25°C58 %747 мм1.3 м/с2 %
    14:00Небольшая облачность+27°C49 %747 мм1.6 м/с5 %
    17:00Практически безоблачно+26°C49 %746 мм1.4 м/с5 %
    20:00Облачно с прояснениями+25°C64 %746 мм1.7 м/с2 %
    23:00Ясно и безоблачно+20°C75 %746 мм4.4 м/с2 %
  • 22июля
    Понедельник
    +12°
    +23°
    Пасмурно, небольшой дождь
    ВремяПогодаТемператураВлажностьДавлениеВетер, м/сВероятность осадков
    02:00Облачно с прояснениями+18°C79 %746 мм3.8 м/с4 %
    05:00Ясно и безоблачно+17°C88 %746 мм3.4 м/с12 %
    08:00Ясно и безоблачно+20°C79 %746 мм2.9 м/с32 %
    11:00Облачно с прояснениями+24°C56 %746 мм3.1 м/с41 %
    14:00Пасмурно, небольшой дождь+26°C44 %746 мм2.6 м/с63 %
    17:00Пасмурно, небольшой дождь+22°C73 %747 мм3.7 м/с75 %
    20:00Пасмурно, дождь+20°C92 %748 мм2.7 м/с58 %
    23:00Пасмурно, ливень+17°C96 %748 мм4.6 м/с31 %
Мы используем cookies
Соглашаюсь